sensor_id;sensor_type;location;lat;lon;timestamp;pressure;altitude;pressure_sealevel;temperature;humidity
19086;BME280;9675;51.538;6.728;2023-04-26T00:00:03;101548.00;;;8.35;72.65
19086;BME280;9675;51.538;6.728;2023-04-26T00:02:35;101551.25;;;8.33;73.56
19086;BME280;9675;51.538;6.728;2023-04-26T00:05:02;101545.78;;;8.28;73.28
19086;BME280;9675;51.538;6.728;2023-04-26T00:07:29;101547.22;;;8.25;73.52
19086;BME280;9675;51.538;6.728;2023-04-26T00:09:57;101545.34;;;8.22;73.55
19086;BME280;9675;51.538;6.728;2023-04-26T00:12:24;101543.44;;;8.20;72.91
19086;BME280;9675;51.538;6.728;2023-04-26T00:14:51;101548.38;;;8.17;73.86
19086;BME280;9675;51.538;6.728;2023-04-26T00:17:18;101548.13;;;8.13;73.70
19086;BME280;9675;51.538;6.728;2023-04-26T00:19:46;101550.63;;;8.12;74.68
19086;BME280;9675;51.538;6.728;2023-04-26T00:22:13;101546.94;;;8.08;74.09
19086;BME280;9675;51.538;6.728;2023-04-26T00:24:41;101547.50;;;8.04;74.46
19086;BME280;9675;51.538;6.728;2023-04-26T00:27:08;101541.28;;;8.01;74.43
19086;BME280;9675;51.538;6.728;2023-04-26T00:29:35;101537.69;;;7.99;74.53
19086;BME280;9675;51.538;6.728;2023-04-26T00:32:03;101546.84;;;7.95;75.71
19086;BME280;9675;51.538;6.728;2023-04-26T00:34:32;101538.97;;;7.92;76.23
19086;BME280;9675;51.538;6.728;2023-04-26T00:37:01;101535.19;;;7.87;75.69
19086;BME280;9675;51.538;6.728;2023-04-26T00:39:28;101534.16;;;7.85;75.83
19086;BME280;9675;51.538;6.728;2023-04-26T00:41:56;101538.19;;;7.82;76.55
19086;BME280;9675;51.538;6.728;2023-04-26T00:44:23;101531.94;;;7.78;76.13
19086;BME280;9675;51.538;6.728;2023-04-26T00:46:52;101533.53;;;7.76;76.87
19086;BME280;9675;51.538;6.728;2023-04-26T00:49:23;101535.06;;;7.74;76.30
19086;BME280;9675;51.538;6.728;2023-04-26T00:51:51;101533.19;;;7.72;76.71
19086;BME280;9675;51.538;6.728;2023-04-26T00:54:20;101533.84;;;7.69;76.47
19086;BME280;9675;51.538;6.728;2023-04-26T00:56:47;101530.19;;;7.65;76.76
19086;BME280;9675;51.538;6.728;2023-04-26T00:59:18;101529.16;;;7.63;77.58
19086;BME280;9675;51.538;6.728;2023-04-26T01:01:46;101523.84;;;7.60;78.30
19086;BME280;9675;51.538;6.728;2023-04-26T01:04:14;101520.13;;;7.57;78.53
19086;BME280;9675;51.538;6.728;2023-04-26T01:06:41;101530.19;;;7.54;78.34
19086;BME280;9675;51.538;6.728;2023-04-26T01:09:08;101524.84;;;7.51;77.14
19086;BME280;9675;51.538;6.728;2023-04-26T01:11:38;101527.16;;;7.48;78.11
19086;BME280;9675;51.538;6.728;2023-04-26T01:14:05;101529.53;;;7.45;78.53
19086;BME280;9675;51.538;6.728;2023-04-26T01:16:34;101534.53;;;7.43;78.25
19086;BME280;9675;51.538;6.728;2023-04-26T01:19:07;101531.75;;;7.40;78.60
19086;BME280;9675;51.538;6.728;2023-04-26T01:21:35;101539.31;;;7.39;78.67
19086;BME280;9675;51.538;6.728;2023-04-26T01:24:05;101539.13;;;7.36;78.78
19086;BME280;9675;51.538;6.728;2023-04-26T01:26:32;101544.00;;;7.33;80.03
19086;BME280;9675;51.538;6.728;2023-04-26T01:28:59;101548.91;;;7.30;80.16
19086;BME280;9675;51.538;6.728;2023-04-26T01:31:27;101543.66;;;7.28;79.76
19086;BME280;9675;51.538;6.728;2023-04-26T01:33:54;101546.88;;;7.25;80.20
19086;BME280;9675;51.538;6.728;2023-04-26T01:36:21;101539.09;;;7.24;79.94
19086;BME280;9675;51.538;6.728;2023-04-26T01:38:48;101539.75;;;7.21;81.22
19086;BME280;9675;51.538;6.728;2023-04-26T01:41:17;101546.44;;;7.19;81.16
19086;BME280;9675;51.538;6.728;2023-04-26T01:43:44;101541.06;;;7.16;81.52
19086;BME280;9675;51.538;6.728;2023-04-26T01:46:11;101544.19;;;7.12;81.46
19086;BME280;9675;51.538;6.728;2023-04-26T01:48:38;101538.06;;;7.10;82.08
19086;BME280;9675;51.538;6.728;2023-04-26T01:51:05;101542.19;;;7.08;82.16
19086;BME280;9675;51.538;6.728;2023-04-26T01:53:32;101546.28;;;7.06;81.79
19086;BME280;9675;51.538;6.728;2023-04-26T01:56:00;101528.16;;;7.03;82.16
19086;BME280;9675;51.538;6.728;2023-04-26T01:58:29;101533.28;;;7.03;82.87
19086;BME280;9675;51.538;6.728;2023-04-26T02:01:04;101543.28;;;7.00;82.23
19086;BME280;9675;51.538;6.728;2023-04-26T02:03:32;101546.63;;;6.99;83.13
19086;BME280;9675;51.538;6.728;2023-04-26T02:05:59;101548.19;;;6.97;82.60
19086;BME280;9675;51.538;6.728;2023-04-26T02:08:26;101546.25;;;6.95;83.59
19086;BME280;9675;51.538;6.728;2023-04-26T02:10:53;101550.28;;;6.91;83.46
19086;BME280;9675;51.538;6.728;2023-04-26T02:13:20;101545.91;;;6.90;83.25
19086;BME280;9675;51.538;6.728;2023-04-26T02:15:49;101539.00;;;6.89;83.21
19086;BME280;9675;51.538;6.728;2023-04-26T02:18:16;101553.25;;;6.86;84.00
19086;BME280;9675;51.538;6.728;2023-04-26T02:20:46;101548.81;;;6.83;84.48
19086;BME280;9675;51.538;6.728;2023-04-26T02:23:14;101546.13;;;6.81;84.33
19086;BME280;9675;51.538;6.728;2023-04-26T02:25:44;101548.56;;;6.80;84.70
19086;BME280;9675;51.538;6.728;2023-04-26T02:28:12;101546.78;;;6.79;84.41
19086;BME280;9675;51.538;6.728;2023-04-26T02:30:39;101548.34;;;6.77;84.26
19086;BME280;9675;51.538;6.728;2023-04-26T02:33:07;101556.56;;;6.73;84.62
19086;BME280;9675;51.538;6.728;2023-04-26T02:35:35;101540.97;;;6.70;85.71
19086;BME280;9675;51.538;6.728;2023-04-26T02:38:02;101548.66;;;6.70;85.42
19086;BME280;9675;51.538;6.728;2023-04-26T02:40:29;101542.63;;;6.69;85.39
19086;BME280;9675;51.538;6.728;2023-04-26T02:42:56;101551.97;;;6.69;85.01
19086;BME280;9675;51.538;6.728;2023-04-26T02:45:24;101540.75;;;6.67;84.93
19086;BME280;9675;51.538;6.728;2023-04-26T02:47:51;101532.94;;;6.65;85.51
19086;BME280;9675;51.538;6.728;2023-04-26T02:50:19;101542.97;;;6.62;86.14
19086;BME280;9675;51.538;6.728;2023-04-26T02:52:46;101547.81;;;6.59;86.27
19086;BME280;9675;51.538;6.728;2023-04-26T02:55:13;101548.50;;;6.57;86.87
19086;BME280;9675;51.538;6.728;2023-04-26T02:57:40;101541.59;;;6.56;86.57
19086;BME280;9675;51.538;6.728;2023-04-26T03:00:08;101543.13;;;6.54;86.34
19086;BME280;9675;51.538;6.728;2023-04-26T03:02:38;101548.03;;;6.51;86.95
19086;BME280;9675;51.538;6.728;2023-04-26T03:05:06;101539.34;;;6.49;87.05
19086;BME280;9675;51.538;6.728;2023-04-26T03:07:35;101540.91;;;6.47;87.18
19086;BME280;9675;51.538;6.728;2023-04-26T03:10:03;101538.34;;;6.47;87.54
19086;BME280;9675;51.538;6.728;2023-04-26T03:12:30;101545.75;;;6.44;87.50
19086;BME280;9675;51.538;6.728;2023-04-26T03:14:57;101540.44;;;6.40;87.53
19086;BME280;9675;51.538;6.728;2023-04-26T03:17:24;101541.97;;;6.38;88.20
19086;BME280;9675;51.538;6.728;2023-04-26T03:19:51;101539.31;;;6.37;88.18
19086;BME280;9675;51.538;6.728;2023-04-26T03:22:18;101546.09;;;6.36;88.59
19086;BME280;9675;51.538;6.728;2023-04-26T03:24:47;101544.03;;;6.32;87.99
19086;BME280;9675;51.538;6.728;2023-04-26T03:27:14;101528.59;;;6.31;88.96
19086;BME280;9675;51.538;6.728;2023-04-26T03:29:41;101538.69;;;6.29;88.38
19086;BME280;9675;51.538;6.728;2023-04-26T03:32:08;101530.81;;;6.26;89.07
19086;BME280;9675;51.538;6.728;2023-04-26T03:34:35;101531.56;;;6.25;89.89
19086;BME280;9675;51.538;6.728;2023-04-26T03:37:02;101525.31;;;6.22;89.62
19086;BME280;9675;51.538;6.728;2023-04-26T03:39:29;101530.31;;;6.20;89.88
19086;BME280;9675;51.538;6.728;2023-04-26T03:41:58;101528.53;;;6.19;89.85
19086;BME280;9675;51.538;6.728;2023-04-26T03:44:25;101523.19;;;6.16;90.00
19086;BME280;9675;51.538;6.728;2023-04-26T03:46:52;101523.06;;;6.15;89.98
19086;BME280;9675;51.538;6.728;2023-04-26T03:49:19;101522.94;;;6.13;90.52
19086;BME280;9675;51.538;6.728;2023-04-26T03:51:46;101522.72;;;6.10;90.30
19086;BME280;9675;51.538;6.728;2023-04-26T03:54:14;101515.59;;;6.06;90.79
19086;BME280;9675;51.538;6.728;2023-04-26T03:56:41;101524.03;;;6.05;91.12
19086;BME280;9675;51.538;6.728;2023-04-26T03:59:09;101515.31;;;6.03;91.47
19086;BME280;9675;51.538;6.728;2023-04-26T04:01:37;101523.00;;;6.03;91.43
19086;BME280;9675;51.538;6.728;2023-04-26T04:04:04;101521.13;;;6.01;92.32
19086;BME280;9675;51.538;6.728;2023-04-26T04:06:31;101521.63;;;5.96;93.30
19086;BME280;9675;51.538;6.728;2023-04-26T04:08:58;101523.06;;;5.93;92.82
19086;BME280;9675;51.538;6.728;2023-04-26T04:11:25;101519.47;;;5.91;93.75
19086;BME280;9675;51.538;6.728;2023-04-26T04:13:52;101520.13;;;5.88;93.64
19086;BME280;9675;51.538;6.728;2023-04-26T04:16:21;101521.03;;;5.89;93.86
19086;BME280;9675;51.538;6.728;2023-04-26T04:18:48;101518.34;;;5.87;93.75
19086;BME280;9675;51.538;6.728;2023-04-26T04:21:15;101524.09;;;5.85;93.64
19086;BME280;9675;51.538;6.728;2023-04-26T04:23:42;101524.72;;;5.82;93.57
19086;BME280;9675;51.538;6.728;2023-04-26T04:26:09;101523.69;;;5.80;94.55
19086;BME280;9675;51.538;6.728;2023-04-26T04:28:38;101532.03;;;5.78;94.22
19086;BME280;9675;51.538;6.728;2023-04-26T04:31:06;101533.56;;;5.76;94.51
19086;BME280;9675;51.538;6.728;2023-04-26T04:33:35;101537.69;;;5.74;94.38
19086;BME280;9675;51.538;6.728;2023-04-26T04:36:03;101536.66;;;5.72;95.57
19086;BME280;9675;51.538;6.728;2023-04-26T04:38:31;101544.31;;;5.72;95.09
19086;BME280;9675;51.538;6.728;2023-04-26T04:40:58;101534.84;;;5.71;94.15
19086;BME280;9675;51.538;6.728;2023-04-26T04:43:25;101545.97;;;5.71;94.06
19086;BME280;9675;51.538;6.728;2023-04-26T04:45:53;101538.84;;;5.67;93.94
19086;BME280;9675;51.538;6.728;2023-04-26T04:48:20;101538.84;;;5.67;95.29
19086;BME280;9675;51.538;6.728;2023-04-26T04:50:48;101536.94;;;5.65;95.43
19086;BME280;9675;51.538;6.728;2023-04-26T04:53:16;101550.59;;;5.65;96.68
19086;BME280;9675;51.538;6.728;2023-04-26T04:55:43;101547.03;;;5.63;96.41
19086;BME280;9675;51.538;6.728;2023-04-26T04:58:10;101553.03;;;5.64;95.76
19086;BME280;9675;51.538;6.728;2023-04-26T05:00:39;101557.25;;;5.63;95.15
19086;BME280;9675;51.538;6.728;2023-04-26T05:03:06;101559.53;;;5.60;96.69
19086;BME280;9675;51.538;6.728;2023-04-26T05:05:35;101559.53;;;5.60;98.87
19086;BME280;9675;51.538;6.728;2023-04-26T05:08:04;101559.44;;;5.59;99.84
19086;BME280;9675;51.538;6.728;2023-04-26T05:10:33;101555.22;;;5.59;99.76
19086;BME280;9675;51.538;6.728;2023-04-26T05:13:00;101561.19;;;5.60;100.00
19086;BME280;9675;51.538;6.728;2023-04-26T05:15:28;101557.78;;;5.59;100.00
19086;BME280;9675;51.538;6.728;2023-04-26T05:17:55;101564.56;;;5.59;100.00
19086;BME280;9675;51.538;6.728;2023-04-26T05:20:24;101564.56;;;5.59;100.00
19086;BME280;9675;51.538;6.728;2023-04-26T05:22:51;101568.63;;;5.56;100.00
19086;BME280;9675;51.538;6.728;2023-04-26T05:25:20;101570.28;;;5.56;100.00
19086;BME280;9675;51.538;6.728;2023-04-26T05:27:47;101572.84;;;5.56;100.00
19086;BME280;9675;51.538;6.728;2023-04-26T05:30:14;101571.84;;;5.54;100.00
19086;BME280;9675;51.538;6.728;2023-04-26T05:32:41;101581.16;;;5.53;100.00
19086;BME280;9675;51.538;6.728;2023-04-26T05:35:08;101571.84;;;5.54;100.00
19086;BME280;9675;51.538;6.728;2023-04-26T05:37:35;101578.72;;;5.55;100.00
19086;BME280;9675;51.538;6.728;2023-04-26T05:40:06;101581.16;;;5.53;100.00
19086;BME280;9675;51.538;6.728;2023-04-26T05:42:36;101577.97;;;5.56;100.00
19086;BME280;9675;51.538;6.728;2023-04-26T05:45:04;101581.28;;;5.55;100.00
19086;BME280;9675;51.538;6.728;2023-04-26T05:47:31;101583.97;;;5.56;100.00
19086;BME280;9675;51.538;6.728;2023-04-26T05:49:58;101583.81;;;5.55;100.00
19086;BME280;9675;51.538;6.728;2023-04-26T05:52:25;101589.84;;;5.55;100.00
19086;BME280;9675;51.538;6.728;2023-04-26T05:54:53;101584.84;;;5.57;100.00
19086;BME280;9675;51.538;6.728;2023-04-26T05:57:20;101588.31;;;5.57;100.00
19086;BME280;9675;51.538;6.728;2023-04-26T05:59:48;101586.75;;;5.60;100.00
19086;BME280;9675;51.538;6.728;2023-04-26T06:02:15;101590.09;;;5.59;100.00
19086;BME280;9675;51.538;6.728;2023-04-26T06:04:42;101589.56;;;5.63;100.00
19086;BME280;9675;51.538;6.728;2023-04-26T06:07:09;101592.25;;;5.64;100.00
19086;BME280;9675;51.538;6.728;2023-04-26T06:09:36;101598.25;;;5.65;100.00
19086;BME280;9675;51.538;6.728;2023-04-26T06:12:04;101590.84;;;5.68;100.00
19086;BME280;9675;51.538;6.728;2023-04-26T06:14:31;101596.19;;;5.71;100.00
19086;BME280;9675;51.538;6.728;2023-04-26T06:17:00;101597.97;;;5.72;100.00
19086;BME280;9675;51.538;6.728;2023-04-26T06:19:27;101597.97;;;5.72;100.00
19086;BME280;9675;51.538;6.728;2023-04-26T06:21:54;101592.84;;;5.72;100.00
19086;BME280;9675;51.538;6.728;2023-04-26T06:24:23;101600.00;;;5.76;100.00
19086;BME280;9675;51.538;6.728;2023-04-26T06:26:50;101601.78;;;5.77;100.00
19086;BME280;9675;51.538;6.728;2023-04-26T06:29:17;101602.06;;;5.80;100.00
19086;BME280;9675;51.538;6.728;2023-04-26T06:31:44;101601.78;;;5.87;100.00
19086;BME280;9675;51.538;6.728;2023-04-26T06:34:13;101612.38;;;5.91;100.00
19086;BME280;9675;51.538;6.728;2023-04-26T06:36:39;101608.66;;;5.98;100.00
19086;BME280;9675;51.538;6.728;2023-04-26T06:39:06;101613.22;;;6.02;100.00
19086;BME280;9675;51.538;6.728;2023-04-26T06:41:33;101612.72;;;6.06;100.00
19086;BME280;9675;51.538;6.728;2023-04-26T06:44:00;101612.97;;;6.09;100.00
19086;BME280;9675;51.538;6.728;2023-04-26T06:46:27;101606.53;;;6.14;100.00
19086;BME280;9675;51.538;6.728;2023-04-26T06:48:54;101605.25;;;6.19;100.00
19086;BME280;9675;51.538;6.728;2023-04-26T06:51:23;101600.50;;;6.24;100.00
19086;BME280;9675;51.538;6.728;2023-04-26T06:53:50;101599.84;;;6.26;100.00
19086;BME280;9675;51.538;6.728;2023-04-26T06:56:17;101597.75;;;6.32;100.00
19086;BME280;9675;51.538;6.728;2023-04-26T06:58:58;101601.56;;;6.37;100.00
19086;BME280;9675;51.538;6.728;2023-04-26T07:01:26;101600.03;;;6.39;100.00
19086;BME280;9675;51.538;6.728;2023-04-26T07:03:54;101598.72;;;6.45;100.00
19086;BME280;9675;51.538;6.728;2023-04-26T07:06:25;101610.97;;;6.49;100.00
19086;BME280;9675;51.538;6.728;2023-04-26T07:08:52;101606.19;;;6.53;100.00
19086;BME280;9675;51.538;6.728;2023-04-26T07:11:19;101599.41;;;6.54;100.00
19086;BME280;9675;51.538;6.728;2023-04-26T07:13:46;101613.72;;;6.62;100.00
19086;BME280;9675;51.538;6.728;2023-04-26T07:16:13;101613.16;;;6.66;100.00
19086;BME280;9675;51.538;6.728;2023-04-26T07:18:41;101604.94;;;6.70;100.00
19086;BME280;9675;51.538;6.728;2023-04-26T07:21:08;101609.53;;;6.74;100.00
19086;BME280;9675;51.538;6.728;2023-04-26T07:23:36;101595.41;;;6.79;100.00
19086;BME280;9675;51.538;6.728;2023-04-26T07:26:04;101601.75;;;6.84;100.00
19086;BME280;9675;51.538;6.728;2023-04-26T07:28:31;101605.56;;;6.89;100.00
19086;BME280;9675;51.538;6.728;2023-04-26T07:30:59;101600.91;;;6.95;100.00
19086;BME280;9675;51.538;6.728;2023-04-26T07:33:26;101611.63;;;7.01;100.00
19086;BME280;9675;51.538;6.728;2023-04-26T07:35:54;101605.44;;;7.09;100.00
19086;BME280;9675;51.538;6.728;2023-04-26T07:38:22;101605.88;;;7.15;100.00
19086;BME280;9675;51.538;6.728;2023-04-26T07:40:51;101605.56;;;7.22;100.00
19086;BME280;9675;51.538;6.728;2023-04-26T07:43:19;101607.00;;;7.31;100.00
19086;BME280;9675;51.538;6.728;2023-04-26T07:45:46;101614.50;;;7.39;100.00
19086;BME280;9675;51.538;6.728;2023-04-26T07:48:13;101603.06;;;7.46;100.00
19086;BME280;9675;51.538;6.728;2023-04-26T07:50:41;101607.84;;;7.53;100.00
19086;BME280;9675;51.538;6.728;2023-04-26T07:53:08;101605.72;;;7.59;100.00
19086;BME280;9675;51.538;6.728;2023-04-26T07:55:35;101602.84;;;7.66;100.00
19086;BME280;9675;51.538;6.728;2023-04-26T07:58:04;101598.13;;;7.72;100.00
19086;BME280;9675;51.538;6.728;2023-04-26T08:00:32;101602.94;;;7.79;100.00
19086;BME280;9675;51.538;6.728;2023-04-26T08:03:03;101607.75;;;7.86;100.00
19086;BME280;9675;51.538;6.728;2023-04-26T08:05:30;101599.69;;;7.93;98.73
19086;BME280;9675;51.538;6.728;2023-04-26T08:07:57;101597.38;;;7.96;99.01
19086;BME280;9675;51.538;6.728;2023-04-26T08:10:25;101596.91;;;8.02;97.65
19086;BME280;9675;51.538;6.728;2023-04-26T08:12:53;101607.69;;;8.09;97.06
19086;BME280;9675;51.538;6.728;2023-04-26T08:15:23;101594.53;;;8.17;94.56
19086;BME280;9675;51.538;6.728;2023-04-26T08:17:50;101598.31;;;8.22;93.41
19086;BME280;9675;51.538;6.728;2023-04-26T08:20:18;101601.34;;;8.28;91.73
19086;BME280;9675;51.538;6.728;2023-04-26T08:22:45;101590.53;;;8.32;88.91
19086;BME280;9675;51.538;6.728;2023-04-26T08:25:12;101601.22;;;8.38;90.08
19086;BME280;9675;51.538;6.728;2023-04-26T08:27:39;101597.19;;;8.41;89.37
19086;BME280;9675;51.538;6.728;2023-04-26T08:30:07;101593.16;;;8.45;85.96
19086;BME280;9675;51.538;6.728;2023-04-26T08:32:36;101600.31;;;8.49;86.22
19086;BME280;9675;51.538;6.728;2023-04-26T08:35:03;101607.44;;;8.53;85.10
19086;BME280;9675;51.538;6.728;2023-04-26T08:37:31;101598.38;;;8.58;82.98
19086;BME280;9675;51.538;6.728;2023-04-26T08:39:58;101606.50;;;8.64;82.49
19086;BME280;9675;51.538;6.728;2023-04-26T08:42:27;101600.00;;;8.69;80.10
19086;BME280;9675;51.538;6.728;2023-04-26T08:44:54;101614.94;;;8.75;79.95
19086;BME280;9675;51.538;6.728;2023-04-26T08:47:28;101611.78;;;8.79;80.12
19086;BME280;9675;51.538;6.728;2023-04-26T08:49:58;101608.53;;;8.81;78.26
19086;BME280;9675;51.538;6.728;2023-04-26T08:52:30;101611.53;;;8.87;76.94
19086;BME280;9675;51.538;6.728;2023-04-26T08:54:59;101606.81;;;8.93;77.06
19086;BME280;9675;51.538;6.728;2023-04-26T08:57:26;101603.66;;;8.98;77.87
19086;BME280;9675;51.538;6.728;2023-04-26T08:59:55;101603.88;;;9.01;77.44
19086;BME280;9675;51.538;6.728;2023-04-26T09:02:23;101608.31;;;9.03;76.97
19086;BME280;9675;51.538;6.728;2023-04-26T09:04:50;101612.00;;;9.07;77.41
19086;BME280;9675;51.538;6.728;2023-04-26T09:07:22;101609.63;;;9.10;76.74
19086;BME280;9675;51.538;6.728;2023-04-26T09:09:53;101609.81;;;9.13;75.96
19086;BME280;9675;51.538;6.728;2023-04-26T09:12:23;101621.22;;;9.16;72.46
19086;BME280;9675;51.538;6.728;2023-04-26T09:14:50;101620.53;;;9.19;72.32
19086;BME280;9675;51.538;6.728;2023-04-26T09:17:28;101613.13;;;9.23;71.86
19086;BME280;9675;51.538;6.728;2023-04-26T09:19:56;101616.69;;;9.25;73.03
19086;BME280;9675;51.538;6.728;2023-04-26T09:22:30;101616.81;;;9.27;72.97
19086;BME280;9675;51.538;6.728;2023-04-26T09:24:58;101617.00;;;9.30;72.03
19086;BME280;9675;51.538;6.728;2023-04-26T09:27:33;101618.00;;;9.32;71.31
19086;BME280;9675;51.538;6.728;2023-04-26T09:30:05;101609.47;;;9.33;71.66
19086;BME280;9675;51.538;6.728;2023-04-26T09:32:47;101607.72;;;9.32;69.30
19086;BME280;9675;51.538;6.728;2023-04-26T09:35:24;101611.28;;;9.34;69.40
19086;BME280;9675;51.538;6.728;2023-04-26T09:37:55;101602.00;;;9.36;68.52
19086;BME280;9675;51.538;6.728;2023-04-26T09:40:26;101606.53;;;9.40;67.81
19086;BME280;9675;51.538;6.728;2023-04-26T09:42:59;101595.66;;;9.44;67.85
19086;BME280;9675;51.538;6.728;2023-04-26T09:45:28;101593.31;;;9.47;68.82
19086;BME280;9675;51.538;6.728;2023-04-26T09:48:12;101590.16;;;9.51;67.72
19086;BME280;9675;51.538;6.728;2023-04-26T09:50:42;101586.19;;;9.56;67.55
19086;BME280;9675;51.538;6.728;2023-04-26T09:53:23;101589.94;;;9.61;65.80
19086;BME280;9675;51.538;6.728;2023-04-26T09:55:52;101584.22;;;9.65;65.30
19086;BME280;9675;51.538;6.728;2023-04-26T09:58:19;101585.41;;;9.70;65.48
19086;BME280;9675;51.538;6.728;2023-04-26T10:00:49;101589.16;;;9.75;63.99
19086;BME280;9675;51.538;6.728;2023-04-26T10:03:19;101596.28;;;9.79;63.92
19086;BME280;9675;51.538;6.728;2023-04-26T10:05:46;101591.34;;;9.82;64.53
19086;BME280;9675;51.538;6.728;2023-04-26T10:08:15;101586.31;;;9.84;64.81
19086;BME280;9675;51.538;6.728;2023-04-26T10:10:42;101591.81;;;9.90;64.93
19086;BME280;9675;51.538;6.728;2023-04-26T10:13:10;101583.72;;;9.97;64.63
19086;BME280;9675;51.538;6.728;2023-04-26T10:15:38;101589.44;;;10.06;63.95
19086;BME280;9675;51.538;6.728;2023-04-26T10:18:05;101578.97;;;10.16;63.31
19086;BME280;9675;51.538;6.728;2023-04-26T10:20:38;101578.84;;;10.28;63.52
19086;BME280;9675;51.538;6.728;2023-04-26T10:23:12;101578.81;;;10.41;61.15
19086;BME280;9675;51.538;6.728;2023-04-26T10:25:47;101581.44;;;10.56;60.96
19086;BME280;9675;51.538;6.728;2023-04-26T10:28:16;101576.13;;;10.68;60.73
19086;BME280;9675;51.538;6.728;2023-04-26T10:30:58;101570.22;;;10.83;61.11
19086;BME280;9675;51.538;6.728;2023-04-26T10:33:26;101569.09;;;10.93;60.24
19086;BME280;9675;51.538;6.728;2023-04-26T10:36:09;101572.38;;;11.05;58.63
19086;BME280;9675;51.538;6.728;2023-04-26T10:38:39;101575.06;;;11.21;58.33
19086;BME280;9675;51.538;6.728;2023-04-26T10:41:32;101575.78;;;11.33;59.87
19086;BME280;9675;51.538;6.728;2023-04-26T10:44:35;101567.59;;;11.40;59.33
19086;BME280;9675;51.538;6.728;2023-04-26T10:47:05;101568.94;;;11.48;60.23
19086;BME280;9675;51.538;6.728;2023-04-26T10:49:44;101561.56;;;11.55;58.54
19086;BME280;9675;51.538;6.728;2023-04-26T10:52:15;101567.13;;;11.62;58.78
19086;BME280;9675;51.538;6.728;2023-04-26T10:54:49;101560.63;;;11.69;57.90
19086;BME280;9675;51.538;6.728;2023-04-26T10:57:19;101561.03;;;11.75;57.88
19086;BME280;9675;51.538;6.728;2023-04-26T11:00:20;101558.16;;;11.85;57.36
19086;BME280;9675;51.538;6.728;2023-04-26T11:02:56;101555.19;;;11.93;58.38
19086;BME280;9675;51.538;6.728;2023-04-26T11:05:50;101549.47;;;11.99;56.67
19086;BME280;9675;51.538;6.728;2023-04-26T11:08:20;101551.59;;;12.06;56.92
19086;BME280;9675;51.538;6.728;2023-04-26T11:10:51;101554.50;;;12.12;56.52
19086;BME280;9675;51.538;6.728;2023-04-26T11:13:19;101559.81;;;12.15;55.70
19086;BME280;9675;51.538;6.728;2023-04-26T11:15:51;101563.78;;;12.25;54.99
19086;BME280;9675;51.538;6.728;2023-04-26T11:18:20;101564.03;;;12.29;55.24
19086;BME280;9675;51.538;6.728;2023-04-26T11:20:47;101564.72;;;12.42;53.76
19086;BME280;9675;51.538;6.728;2023-04-26T11:23:17;101560.78;;;12.48;54.63
19086;BME280;9675;51.538;6.728;2023-04-26T11:25:44;101557.63;;;12.54;53.08
19086;BME280;9675;51.538;6.728;2023-04-26T11:28:11;101554.28;;;12.56;52.71
19086;BME280;9675;51.538;6.728;2023-04-26T11:30:40;101560.13;;;12.68;53.60
19086;BME280;9675;51.538;6.728;2023-04-26T11:33:16;101549.22;;;12.74;54.14
19086;BME280;9675;51.538;6.728;2023-04-26T11:35:45;101546.78;;;12.77;53.12
19086;BME280;9675;51.538;6.728;2023-04-26T11:38:13;101546.13;;;12.81;52.13
19086;BME280;9675;51.538;6.728;2023-04-26T11:40:41;101544.66;;;12.86;52.02
19086;BME280;9675;51.538;6.728;2023-04-26T11:43:09;101546.59;;;12.90;51.98
19086;BME280;9675;51.538;6.728;2023-04-26T11:45:39;101542.56;;;12.95;50.51
19086;BME280;9675;51.538;6.728;2023-04-26T11:48:09;101547.31;;;13.04;52.32
19086;BME280;9675;51.538;6.728;2023-04-26T11:50:38;101547.72;;;13.11;51.81
19086;BME280;9675;51.538;6.728;2023-04-26T11:53:08;101547.00;;;13.14;50.85
19086;BME280;9675;51.538;6.728;2023-04-26T11:55:35;101555.78;;;13.17;51.03
19086;BME280;9675;51.538;6.728;2023-04-26T11:58:10;101550.78;;;13.21;50.41
19086;BME280;9675;51.538;6.728;2023-04-26T12:00:58;101549.16;;;13.23;50.90
19086;BME280;9675;51.538;6.728;2023-04-26T12:03:30;101544.50;;;13.33;50.08
19086;BME280;9675;51.538;6.728;2023-04-26T12:05:59;101546.00;;;13.46;51.06
19086;BME280;9675;51.538;6.728;2023-04-26T12:08:27;101543.72;;;13.52;51.46
19086;BME280;9675;51.538;6.728;2023-04-26T12:10:58;101543.34;;;13.62;50.70
19086;BME280;9675;51.538;6.728;2023-04-26T12:13:26;101535.66;;;13.63;50.91
19086;BME280;9675;51.538;6.728;2023-04-26T12:15:55;101545.28;;;13.66;50.33
19086;BME280;9675;51.538;6.728;2023-04-26T12:18:29;101542.81;;;13.69;50.62
19086;BME280;9675;51.538;6.728;2023-04-26T12:20:59;101534.34;;;13.72;49.52
19086;BME280;9675;51.538;6.728;2023-04-26T12:23:36;101550.88;;;13.75;49.95
19086;BME280;9675;51.538;6.728;2023-04-26T12:26:05;101539.66;;;13.75;48.82
19086;BME280;9675;51.538;6.728;2023-04-26T12:28:35;101541.63;;;13.80;48.59
19086;BME280;9675;51.538;6.728;2023-04-26T12:31:04;101534.25;;;13.88;49.42
19086;BME280;9675;51.538;6.728;2023-04-26T12:33:32;101541.41;;;13.93;49.64
19086;BME280;9675;51.538;6.728;2023-04-26T12:36:06;101538.88;;;13.95;48.67
19086;BME280;9675;51.538;6.728;2023-04-26T12:38:33;101543.34;;;13.97;49.44
19086;BME280;9675;51.538;6.728;2023-04-26T12:41:01;101539.94;;;13.98;48.79
19086;BME280;9675;51.538;6.728;2023-04-26T12:43:28;101538.28;;;14.00;48.14
19086;BME280;9675;51.538;6.728;2023-04-26T12:45:55;101534.16;;;14.04;47.63
19086;BME280;9675;51.538;6.728;2023-04-26T12:48:23;101541.97;;;14.05;47.92
19086;BME280;9675;51.538;6.728;2023-04-26T12:50:50;101539.38;;;14.05;48.24
19086;BME280;9675;51.538;6.728;2023-04-26T12:53:17;101538.66;;;14.08;47.42
19086;BME280;9675;51.538;6.728;2023-04-26T12:55:44;101547.53;;;14.13;47.69
19086;BME280;9675;51.538;6.728;2023-04-26T12:58:11;101538.19;;;14.17;47.82
19086;BME280;9675;51.538;6.728;2023-04-26T13:00:38;101543.44;;;14.18;47.84
19086;BME280;9675;51.538;6.728;2023-04-26T13:03:05;101540.84;;;14.18;47.07
19086;BME280;9675;51.538;6.728;2023-04-26T13:05:34;101552.16;;;14.20;47.14
19086;BME280;9675;51.538;6.728;2023-04-26T13:08:01;101545.28;;;14.21;47.68
19086;BME280;9675;51.538;6.728;2023-04-26T13:10:28;101558.31;;;14.22;47.29
19086;BME280;9675;51.538;6.728;2023-04-26T13:12:55;101558.38;;;14.24;47.21